Time;durP1;ratioP1;P1;durP2;ratioP2;P2;SDS_P1;SDS_P2;PMS_P1;PMS_P2;Temp;Humidity;BMP_temperature;BMP_pressure;BME280_temperature;BME280_humidity;BME280_pressure;Samples;Min_cycle;Max_cycle;Signal;HPM_P1;HPM_P2
2023/12/21 00:00:27;;;;;;;6.43;4.57;;;;;;;;;;1027759;28;20023;-75
2023/12/21 00:00:57;;;;;;;5.97;4.93;;;;;;;;;;1027852;28;20085;-75
2023/12/21 00:01:34;;;;;;;13.40;5.75;;;;;;;;;;1028034;28;20117;-75
2023/12/21 00:02:05;;;;;;;6.30;5.70;;;;;;;;;;1027723;28;20031;-75
2023/12/21 00:02:35;;;;;;;1.70;1.63;;;;;;;;;;1027580;28;20109;-75
2023/12/21 00:03:05;;;;;;;4.05;3.75;;;;;;;;;;1027884;28;20031;-75
2023/12/21 00:03:36;;;;;;;4.80;3.30;;;;;;;;;;1027653;28;20026;-76
2023/12/21 00:04:06;;;;;;;7.97;4.65;;;;;;;;;;1027064;28;20030;-76
2023/12/21 00:04:37;;;;;;;3.63;3.33;;;;;;;;;;1027684;28;20030;-75
2023/12/21 00:05:07;;;;;;;11.52;5.85;;;;;;;;;;1027882;28;20117;-75
2023/12/21 00:05:38;;;;;;;7.57;4.78;;;;;;;;;;1027817;28;20023;-75
2023/12/21 00:06:08;;;;;;;7.25;4.97;;;;;;;;;;1027036;28;20030;-75
2023/12/21 00:06:38;;;;;;;4.88;2.60;;;;;;;;;;1027632;28;20026;-75
2023/12/21 00:07:09;;;;;;;5.75;4.68;;;;;;;;;;1027886;28;20050;-75
2023/12/21 00:07:39;;;;;;;5.07;3.80;;;;;;;;;;1027885;28;20022;-75
2023/12/21 00:08:10;;;;;;;9.85;6.85;;;;;;;;;;1025201;28;20031;-75
2023/12/21 00:08:40;;;;;;;3.80;2.95;;;;;;;;;;1027909;28;20442;-75
2023/12/21 00:09:11;;;;;;;8.40;5.63;;;;;;;;;;1028125;28;20537;-75
2023/12/21 00:09:41;;;;;;;18.13;8.02;;;;;;;;;;1027693;28;20018;-75
2023/12/21 00:10:12;;;;;;;2.38;2.17;;;;;;;;;;1028004;28;20083;-76
2023/12/21 00:10:42;;;;;;;3.78;3.42;;;;;;;;;;1027767;28;20030;-75
2023/12/21 00:11:13;;;;;;;11.00;9.48;;;;;;;;;;1028067;28;20037;-75
2023/12/21 00:11:43;;;;;;;7.50;2.45;;;;;;;;;;1027963;28;20019;-75
2023/12/21 00:12:13;;;;;;;9.63;5.78;;;;;;;;;;1027527;28;20038;-75
2023/12/21 00:12:44;;;;;;;3.25;3.00;;;;;;;;;;1023588;29;20027;-75
2023/12/21 00:13:14;;;;;;;4.18;2.83;;;;;;;;;;1023754;29;20031;-75
2023/12/21 00:13:45;;;;;;;4.50;4.10;;;;;;;;;;1023594;28;20023;-75
2023/12/21 00:14:15;;;;;;;16.40;4.90;;;;;;;;;;1027785;28;20023;-75
2023/12/21 00:14:46;;;;;;;9.00;5.63;;;;;;;;;;1026947;28;20027;-76
2023/12/21 00:15:16;;;;;;;13.65;6.55;;;;;;;;;;1023599;29;20479;-76
2023/12/21 00:15:46;;;;;;;13.98;6.43;;;;;;;;;;1019295;29;20500;-75
2023/12/21 00:16:17;;;;;;;6.57;2.15;;;;;;;;;;1019836;29;20559;-75
2023/12/21 00:16:47;;;;;;;11.75;5.07;;;;;;;;;;1023689;28;20952;-75
2023/12/21 00:17:18;;;;;;;5.57;4.57;;;;;;;;;;1027776;28;20026;-75
2023/12/21 00:17:48;;;;;;;4.15;3.75;;;;;;;;;;1027755;28;20031;-75
2023/12/21 00:18:19;;;;;;;13.18;5.93;;;;;;;;;;1027579;28;20030;-75
2023/12/21 00:18:49;;;;;;;3.15;2.83;;;;;;;;;;1027578;28;20089;-75
2023/12/21 00:19:20;;;;;;;3.90;2.92;;;;;;;;;;1027819;28;20035;-75
2023/12/21 00:19:50;;;;;;;6.05;5.45;;;;;;;;;;1031650;28;20034;-75
2023/12/21 00:20:21;;;;;;;5.28;3.97;;;;;;;;;;1027629;28;20038;-75
2023/12/21 00:20:51;;;;;;;5.88;3.70;;;;;;;;;;1027687;28;20081;-75
2023/12/21 00:21:22;;;;;;;4.57;4.25;;;;;;;;;;1026486;28;20625;-75
2023/12/21 00:21:53;;;;;;;12.75;6.15;;;;;;;;;;1027505;28;20019;-75
2023/12/21 00:22:23;;;;;;;6.75;5.30;;;;;;;;;;1027730;28;20082;-75
2023/12/21 00:22:53;;;;;;;5.15;4.65;;;;;;;;;;1027618;28;20037;-75
2023/12/21 00:23:24;;;;;;;3.17;2.75;;;;;;;;;;1027569;28;20027;-75
2023/12/21 00:23:54;;;;;;;4.03;2.85;;;;;;;;;;1027998;28;20475;-75
2023/12/21 00:24:25;;;;;;;4.70;3.97;;;;;;;;;;1028106;28;20031;-75
2023/12/21 00:24:55;;;;;;;4.70;4.38;;;;;;;;;;1027156;28;20019;-75
2023/12/21 00:25:26;;;;;;;5.72;3.67;;;;;;;;;;1023262;29;20054;-75
2023/12/21 00:25:56;;;;;;;10.10;5.55;;;;;;;;;;1023105;28;20019;-75
2023/12/21 00:26:26;;;;;;;2.65;2.20;;;;;;;;;;1022977;28;20027;-75
2023/12/21 00:26:57;;;;;;;11.25;6.60;;;;;;;;;;1027625;28;20029;-75
2023/12/21 00:27:28;;;;;;;5.43;3.90;;;;;;;;;;1027915;28;20077;-75
2023/12/21 00:27:58;;;;;;;9.27;6.40;;;;;;;;;;1027896;28;20078;-75
2023/12/21 00:28:29;;;;;;;14.38;7.85;;;;;;;;;;1027330;28;20038;-75
2023/12/21 00:28:59;;;;;;;12.43;5.35;;;;;;;;;;1027642;28;20070;-76
2023/12/21 00:29:30;;;;;;;10.43;5.38;;;;;;;;;;1027628;28;20122;-75
2023/12/21 00:30:01;;;;;;;11.30;4.32;;;;;;;;;;1027619;28;20105;-75
2023/12/21 00:30:31;;;;;;;5.90;3.28;;;;;;;;;;1027184;28;20023;-75
2023/12/21 00:31:02;;;;;;;5.47;5.05;;;;;;;;;;1027498;28;20026;-75
2023/12/21 00:31:32;;;;;;;3.65;2.78;;;;;;;;;;1027619;28;20128;-75
2023/12/21 00:32:03;;;;;;;8.02;5.28;;;;;;;;;;1027801;28;20080;-75
2023/12/21 00:32:33;;;;;;;12.73;5.18;;;;;;;;;;1027407;28;20033;-75
2023/12/21 00:33:04;;;;;;;4.95;3.28;;;;;;;;;;1027822;28;20038;-75
2023/12/21 00:33:34;;;;;;;17.48;7.50;;;;;;;;;;1027432;28;20042;-76
2023/12/21 00:34:05;;;;;;;5.07;4.38;;;;;;;;;;1027752;28;20061;-75
2023/12/21 00:34:36;;;;;;;4.95;3.20;;;;;;;;;;1027661;28;20030;-76
2023/12/21 00:35:06;;;;;;;9.30;5.55;;;;;;;;;;1027392;28;20077;-76
2023/12/21 00:35:37;;;;;;;4.40;2.72;;;;;;;;;;1023405;29;20038;-75
2023/12/21 00:36:07;;;;;;;7.25;5.07;;;;;;;;;;1022677;28;20027;-75
2023/12/21 00:36:37;;;;;;;12.38;6.57;;;;;;;;;;1023349;28;20031;-75
2023/12/21 00:37:08;;;;;;;6.38;5.78;;;;;;;;;;1027707;28;20050;-75
2023/12/21 00:37:39;;;;;;;2.78;2.30;;;;;;;;;;1027959;28;20078;-76
2023/12/21 00:38:09;;;;;;;6.47;4.10;;;;;;;;;;1027044;28;20422;-76
2023/12/21 00:38:39;;;;;;;5.55;5.05;;;;;;;;;;1026628;28;20070;-75
2023/12/21 00:39:10;;;;;;;10.20;4.07;;;;;;;;;;1027642;28;20021;-76
2023/12/21 00:39:40;;;;;;;13.27;6.07;;;;;;;;;;1027423;28;20025;-76
2023/12/21 00:40:11;;;;;;;14.38;5.57;;;;;;;;;;1027620;28;20106;-76
2023/12/21 00:40:41;;;;;;;13.88;6.78;;;;;;;;;;1027316;28;20471;-76
2023/12/21 00:41:12;;;;;;;6.65;4.13;;;;;;;;;;1027756;28;20050;-75
2023/12/21 00:41:42;;;;;;;10.90;6.95;;;;;;;;;;1027308;28;20383;-76
2023/12/21 00:42:13;;;;;;;7.18;4.63;;;;;;;;;;1027270;28;20026;-76
2023/12/21 00:42:43;;;;;;;14.30;5.82;;;;;;;;;;1026571;28;21257;-75
2023/12/21 00:43:14;;;;;;;6.22;3.95;;;;;;;;;;1027995;28;20023;-75
2023/12/21 00:43:44;;;;;;;7.78;5.00;;;;;;;;;;1027590;28;20419;-75
2023/12/21 00:44:15;;;;;;;5.38;3.08;;;;;;;;;;1027709;28;20027;-75
2023/12/21 00:44:46;;;;;;;5.85;5.40;;;;;;;;;;1027568;28;20033;-76
2023/12/21 00:45:16;;;;;;;5.53;3.70;;;;;;;;;;1025754;28;20026;-75
2023/12/21 00:45:47;;;;;;;5.95;4.35;;;;;;;;;;1027042;28;20030;-75
2023/12/21 00:46:17;;;;;;;4.20;2.50;;;;;;;;;;1027194;28;20031;-75
2023/12/21 00:46:48;;;;;;;13.38;5.22;;;;;;;;;;1027514;28;20023;-75
2023/12/21 00:47:18;;;;;;;4.50;3.47;;;;;;;;;;1027513;28;20035;-75
2023/12/21 00:47:49;;;;;;;5.80;3.45;;;;;;;;;;1027536;28;20072;-75
2023/12/21 00:48:19;;;;;;;7.50;4.53;;;;;;;;;;1027420;28;20026;-76
2023/12/21 00:48:50;;;;;;;10.10;3.63;;;;;;;;;;1026295;28;20015;-76
2023/12/21 00:49:20;;;;;;;5.40;4.38;;;;;;;;;;1027168;28;20382;-75
2023/12/21 00:49:51;;;;;;;12.15;4.55;;;;;;;;;;1031113;28;20021;-76
2023/12/21 00:50:21;;;;;;;6.93;4.30;;;;;;;;;;1027334;28;20030;-75
2023/12/21 00:50:52;;;;;;;5.53;4.40;;;;;;;;;;1024517;28;20031;-75
2023/12/21 00:51:22;;;;;;;8.60;4.13;;;;;;;;;;1026506;28;20027;-75
2023/12/21 00:51:52;;;;;;;5.78;5.28;;;;;;;;;;1027143;28;20022;-75
2023/12/21 00:52:23;;;;;;;8.27;6.53;;;;;;;;;;1026250;28;20022;-75
2023/12/21 00:52:53;;;;;;;9.55;4.72;;;;;;;;;;1026196;28;20451;-75
2023/12/21 00:53:24;;;;;;;9.18;6.47;;;;;;;;;;1025549;28;20069;-75
2023/12/21 00:53:54;;;;;;;13.05;6.85;;;;;;;;;;1026596;28;20065;-76
2023/12/21 00:54:25;;;;;;;12.60;4.40;;;;;;;;;;1027460;28;20120;-75
2023/12/21 00:54:55;;;;;;;8.88;5.05;;;;;;;;;;1026941;28;20074;-76
2023/12/21 00:55:26;;;;;;;15.02;6.65;;;;;;;;;;1030905;28;20482;-76
2023/12/21 00:55:56;;;;;;;6.05;5.32;;;;;;;;;;1026939;28;20030;-75
2023/12/21 00:56:27;;;;;;;16.77;6.25;;;;;;;;;;1023479;29;20038;-75
2023/12/21 00:56:57;;;;;;;19.83;8.35;;;;;;;;;;1023500;29;20027;-75
2023/12/21 00:57:27;;;;;;;16.70;7.88;;;;;;;;;;1023610;28;20027;-75
2023/12/21 00:57:58;;;;;;;14.45;9.05;;;;;;;;;;1023658;28;20084;-76
2023/12/21 00:58:28;;;;;;;24.88;10.38;;;;;;;;;;1027211;28;20485;-76
2023/12/21 00:58:59;;;;;;;18.88;6.93;;;;;;;;;;1027446;28;20538;-76
2023/12/21 00:59:30;;;;;;;37.13;11.35;;;;;;;;;;1023264;28;20027;-76
2023/12/21 01:00:00;;;;;;;14.45;8.35;;;;;;;;;;1023166;29;20015;-76
2023/12/21 01:00:31;;;;;;;12.88;6.47;;;;;;;;;;1021956;29;20082;-76
2023/12/21 01:01:01;;;;;;;14.10;7.25;;;;;;;;;;1023353;28;20023;-76
2023/12/21 01:01:31;;;;;;;11.40;7.15;;;;;;;;;;1023427;28;20062;-76
2023/12/21 01:02:02;;;;;;;15.35;6.43;;;;;;;;;;1023554;29;20431;-76
2023/12/21 01:02:33;;;;;;;13.80;5.55;;;;;;;;;;1019310;29;20035;-76
2023/12/21 01:03:04;;;;;;;8.85;5.90;;;;;;;;;;1019911;29;20094;-76
2023/12/21 01:03:34;;;;;;;8.30;6.07;;;;;;;;;;1019589;29;20074;-75
2023/12/21 01:04:05;;;;;;;17.13;7.22;;;;;;;;;;1023408;29;20531;-75
2023/12/21 01:04:35;;;;;;;23.45;7.22;;;;;;;;;;1026673;28;20082;-75
2023/12/21 01:05:06;;;;;;;9.27;6.50;;;;;;;;;;1023476;28;20031;-76
2023/12/21 01:05:37;;;;;;;8.23;4.25;;;;;;;;;;1027276;28;20034;-75
2023/12/21 01:06:07;;;;;;;7.90;4.95;;;;;;;;;;1027010;28;20510;-76
2023/12/21 01:06:37;;;;;;;15.75;9.25;;;;;;;;;;1027354;28;20022;-75
2023/12/21 01:07:08;;;;;;;9.13;5.72;;;;;;;;;;1027335;28;20030;-76
2023/12/21 01:07:38;;;;;;;3.83;2.75;;;;;;;;;;1027555;28;20023;-75
2023/12/21 01:08:09;;;;;;;6.93;4.15;;;;;;;;;;1027526;28;20038;-76
2023/12/21 01:08:39;;;;;;;9.98;6.07;;;;;;;;;;1026355;28;20364;-75
2023/12/21 01:09:09;;;;;;;11.27;5.63;;;;;;;;;;1026833;28;20023;-76
2023/12/21 01:09:40;;;;;;;19.13;8.13;;;;;;;;;;1026666;28;20023;-75
2023/12/21 01:10:11;;;;;;;3.13;2.90;;;;;;;;;;1027181;28;20022;-75
2023/12/21 01:10:41;;;;;;;16.00;8.32;;;;;;;;;;1026456;28;20463;-75
2023/12/21 01:11:13;;;;;;;7.95;7.15;;;;;;;;;;1027501;28;20031;-76
2023/12/21 01:11:43;;;;;;;19.27;9.07;;;;;;;;;;1023245;29;20054;-75
2023/12/21 01:12:14;;;;;;;5.90;5.45;;;;;;;;;;1023587;28;20027;-75
2023/12/21 01:12:44;;;;;;;13.95;5.80;;;;;;;;;;1022978;29;20030;-76
2023/12/21 01:13:15;;;;;;;4.45;4.10;;;;;;;;;;1023492;28;20122;-75
2023/12/21 01:13:45;;;;;;;6.32;5.78;;;;;;;;;;1027497;28;20037;-75
2023/12/21 01:14:15;;;;;;;28.17;7.70;;;;;;;;;;1027496;28;20027;-75
2023/12/21 01:14:46;;;;;;;3.78;3.47;;;;;;;;;;1026921;28;20027;-76
2023/12/21 01:15:16;;;;;;;5.10;4.60;;;;;;;;;;1027427;28;20019;-75
2023/12/21 01:15:47;;;;;;;4.75;4.15;;;;;;;;;;1027008;28;20681;-75
2023/12/21 01:16:18;;;;;;;7.55;6.30;;;;;;;;;;1023249;29;20059;-76
2023/12/21 01:16:48;;;;;;;8.48;5.20;;;;;;;;;;1018738;29;20504;-75
2023/12/21 01:17:19;;;;;;;13.82;7.00;;;;;;;;;;1023411;29;20031;-75
2023/12/21 01:17:49;;;;;;;10.05;5.40;;;;;;;;;;1023613;28;20031;-75
2023/12/21 01:18:19;;;;;;;7.55;4.68;;;;;;;;;;1023473;28;20157;-76
2023/12/21 01:18:50;;;;;;;20.15;8.00;;;;;;;;;;1025020;28;20398;-76
2023/12/21 01:19:21;;;;;;;11.70;6.93;;;;;;;;;;1026231;28;20162;-75
2023/12/21 01:19:51;;;;;;;10.52;5.13;;;;;;;;;;1027203;28;20110;-75
2023/12/21 01:20:22;;;;;;;4.90;3.08;;;;;;;;;;1021237;29;20078;-75
2023/12/21 01:20:52;;;;;;;14.68;4.88;;;;;;;;;;1025173;28;20023;-75
2023/12/21 01:21:22;;;;;;;9.25;7.38;;;;;;;;;;1026619;28;20057;-75
2023/12/21 01:21:53;;;;;;;8.75;6.57;;;;;;;;;;1026115;28;20054;-75
2023/12/21 01:22:23;;;;;;;8.52;6.03;;;;;;;;;;1025723;28;20026;-76
2023/12/21 01:22:54;;;;;;;4.70;4.28;;;;;;;;;;1025622;28;20023;-76
2023/12/21 01:23:24;;;;;;;7.40;5.20;;;;;;;;;;1026582;28;20036;-76
2023/12/21 01:23:54;;;;;;;7.45;4.85;;;;;;;;;;1025741;28;20027;-75
2023/12/21 01:24:25;;;;;;;9.13;7.20;;;;;;;;;;1025272;28;20159;-75
2023/12/21 01:24:57;;;;;;;8.93;6.53;;;;;;;;;;1020784;28;20547;-75
2023/12/21 01:25:27;;;;;;;10.32;6.35;;;;;;;;;;1022413;28;20050;-76
2023/12/21 01:25:58;;;;;;;8.23;7.03;;;;;;;;;;1026116;28;20026;-76
2023/12/21 01:26:28;;;;;;;6.30;5.65;;;;;;;;;;1023682;28;20519;-75
2023/12/21 01:26:58;;;;;;;20.83;6.10;;;;;;;;;;1026052;28;20027;-75
2023/12/21 01:27:29;;;;;;;14.85;5.63;;;;;;;;;;1025459;28;20038;-75
2023/12/21 01:27:59;;;;;;;14.57;7.03;;;;;;;;;;1025084;28;20029;-75
2023/12/21 01:28:30;;;;;;;5.43;4.95;;;;;;;;;;1025745;28;20333;-75
2023/12/21 01:29:00;;;;;;;9.02;5.30;;;;;;;;;;1025838;28;20025;-76
2023/12/21 01:29:31;;;;;;;9.88;5.57;;;;;;;;;;1023771;28;20027;-76
2023/12/21 01:30:01;;;;;;;17.15;8.05;;;;;;;;;;1026640;28;20019;-76
2023/12/21 01:30:32;;;;;;;5.03;4.57;;;;;;;;;;1030348;28;20092;-76
2023/12/21 01:31:03;;;;;;;15.20;8.55;;;;;;;;;;1025807;28;20550;-75
2023/12/21 01:31:33;;;;;;;16.50;8.18;;;;;;;;;;1024077;28;20034;-75
2023/12/21 01:32:04;;;;;;;4.22;3.92;;;;;;;;;;1026096;28;20031;-76
2023/12/21 01:32:34;;;;;;;6.57;5.57;;;;;;;;;;1026078;28;20063;-75
2023/12/21 01:33:05;;;;;;;4.18;3.78;;;;;;;;;;1029550;28;20426;-75
2023/12/21 01:33:35;;;;;;;8.23;4.78;;;;;;;;;;1025557;28;20539;-75
2023/12/21 01:34:05;;;;;;;8.50;6.68;;;;;;;;;;1023951;28;20020;-75
2023/12/21 01:34:36;;;;;;;6.93;4.90;;;;;;;;;;1026047;28;20111;-76
2023/12/21 01:35:07;;;;;;;5.30;4.40;;;;;;;;;;1023387;28;20089;-75
2023/12/21 01:35:38;;;;;;;10.43;6.57;;;;;;;;;;1026439;28;20471;-75
2023/12/21 01:36:08;;;;;;;17.70;9.57;;;;;;;;;;1025705;28;20114;-75
2023/12/21 01:36:39;;;;;;;8.10;5.82;;;;;;;;;;1020787;28;20027;-75
2023/12/21 01:37:09;;;;;;;6.15;4.30;;;;;;;;;;1020445;29;20030;-75
2023/12/21 01:37:40;;;;;;;7.05;4.55;;;;;;;;;;1018786;29;20440;-75
2023/12/21 01:38:10;;;;;;;9.95;5.20;;;;;;;;;;1022425;28;20507;-74
2023/12/21 01:38:41;;;;;;;12.90;5.35;;;;;;;;;;1022059;28;20400;-74
2023/12/21 01:39:11;;;;;;;4.95;4.63;;;;;;;;;;1025862;28;20082;-75
2023/12/21 01:39:42;;;;;;;5.93;5.13;;;;;;;;;;1023832;28;20471;-75
2023/12/21 01:40:12;;;;;;;5.47;3.80;;;;;;;;;;1022503;28;20480;-75
2023/12/21 01:40:43;;;;;;;6.22;5.35;;;;;;;;;;1020969;28;20543;-75
2023/12/21 01:41:13;;;;;;;3.05;2.83;;;;;;;;;;1023401;28;20023;-75
2023/12/21 01:41:44;;;;;;;9.95;5.13;;;;;;;;;;1021987;28;20750;-75
2023/12/21 01:42:16;;;;;;;11.18;5.18;;;;;;;;;;1023795;28;20494;-75
2023/12/21 01:42:46;;;;;;;13.57;4.93;;;;;;;;;;1020947;28;20138;-74
2023/12/21 01:43:17;;;;;;;4.80;4.35;;;;;;;;;;1018436;28;20023;-74
2023/12/21 01:43:47;;;;;;;7.15;2.75;;;;;;;;;;1022496;28;20145;-75
2023/12/21 01:44:18;;;;;;;2.85;2.65;;;;;;;;;;1025735;28;20023;-75
2023/12/21 01:44:48;;;;;;;21.73;6.00;;;;;;;;;;1024141;28;20031;-75
2023/12/21 01:45:18;;;;;;;9.35;4.78;;;;;;;;;;1025703;28;20414;-74
2023/12/21 01:45:49;;;;;;;3.10;2.40;;;;;;;;;;1020836;28;20082;-75
2023/12/21 01:46:20;;;;;;;5.57;4.93;;;;;;;;;;1020370;29;20023;-75
2023/12/21 01:46:50;;;;;;;5.40;3.38;;;;;;;;;;1020860;28;20026;-75
2023/12/21 01:47:21;;;;;;;7.32;3.80;;;;;;;;;;1025543;28;20070;-75
2023/12/21 01:47:52;;;;;;;7.72;4.07;;;;;;;;;;1021473;28;20515;-75
2023/12/21 01:48:22;;;;;;;3.83;3.55;;;;;;;;;;1025613;28;20477;-75
2023/12/21 01:48:53;;;;;;;3.53;3.10;;;;;;;;;;1024930;28;20054;-75
2023/12/21 01:49:23;;;;;;;6.38;5.80;;;;;;;;;;1020280;28;20571;-75
2023/12/21 01:49:54;;;;;;;11.30;4.43;;;;;;;;;;1024497;28;20534;-75
2023/12/21 01:50:25;;;;;;;7.47;3.95;;;;;;;;;;1023501;28;20019;-74
2023/12/21 01:50:56;;;;;;;6.30;3.22;;;;;;;;;;1025179;28;20030;-75
2023/12/21 01:51:27;;;;;;;8.48;6.13;;;;;;;;;;1023702;28;20101;-74
2023/12/21 01:51:58;;;;;;;2.70;2.50;;;;;;;;;;1025376;28;20760;-75
2023/12/21 01:52:29;;;;;;;3.65;3.30;;;;;;;;;;1024651;28;20067;-74
2023/12/21 01:52:59;;;;;;;5.57;3.53;;;;;;;;;;1023816;28;20090;-74
2023/12/21 01:53:30;;;;;;;18.05;5.13;;;;;;;;;;1026814;28;20022;-74
2023/12/21 01:54:03;;;;;;;6.55;5.35;;;;;;;;;;1021480;28;20026;-75
2023/12/21 01:54:34;;;;;;;6.50;5.32;;;;;;;;;;1025094;28;20129;-75
2023/12/21 01:55:05;;;;;;;3.70;3.40;;;;;;;;;;1022580;28;20027;-75
2023/12/21 01:55:38;;;;;;;3.10;2.70;;;;;;;;;;1024918;28;20039;-77
2023/12/21 01:56:09;;;;;;;2.38;2.17;;;;;;;;;;1023698;28;20037;-75
2023/12/21 01:56:39;;;;;;;2.47;2.28;;;;;;;;;;1024999;28;20078;-77
2023/12/21 01:57:10;;;;;;;5.22;3.78;;;;;;;;;;1026047;28;20035;-77
2023/12/21 01:57:41;;;;;;;3.72;3.42;;;;;;;;;;1020913;29;20074;-77
2023/12/21 01:58:12;;;;;;;5.35;4.07;;;;;;;;;;1018995;29;20016;-76
2023/12/21 01:58:42;;;;;;;4.03;3.72;;;;;;;;;;1020585;29;20031;-77
2023/12/21 01:59:13;;;;;;;6.65;5.22;;;;;;;;;;1016195;29;20408;-75
2023/12/21 01:59:44;;;;;;;6.45;5.28;;;;;;;;;;1020895;28;20027;-75
2023/12/21 02:00:14;;;;;;;8.90;5.75;;;;;;;;;;1026217;28;20108;-74
2023/12/21 02:00:45;;;;;;;6.50;4.68;;;;;;;;;;1021483;28;20030;-75
2023/12/21 02:01:17;;;;;;;2.85;2.60;;;;;;;;;;1021847;29;20500;-75
2023/12/21 02:01:48;;;;;;;4.90;3.65;;;;;;;;;;1020338;28;20022;-75
2023/12/21 02:02:18;;;;;;;5.55;4.75;;;;;;;;;;1018542;29;20030;-75
2023/12/21 02:02:49;;;;;;;5.50;4.28;;;;;;;;;;1022055;28;20030;-76
2023/12/21 02:03:19;;;;;;;11.85;7.55;;;;;;;;;;1025772;28;20038;-75
2023/12/21 02:03:50;;;;;;;2.75;2.13;;;;;;;;;;1024117;28;21461;-76
2023/12/21 02:04:21;;;;;;;3.40;3.10;;;;;;;;;;1024468;28;20062;-75
2023/12/21 02:04:52;;;;;;;2.35;2.25;;;;;;;;;;1024795;28;20455;-75
2023/12/21 02:05:22;;;;;;;5.80;5.22;;;;;;;;;;1026303;28;20030;-75
2023/12/21 02:05:53;;;;;;;11.07;3.08;;;;;;;;;;1021814;28;20015;-75
2023/12/21 02:06:24;;;;;;;7.53;4.22;;;;;;;;;;1020694;29;20119;-75
2023/12/21 02:06:54;;;;;;;3.53;3.22;;;;;;;;;;1020965;29;20105;-76
2023/12/21 02:07:25;;;;;;;9.30;4.45;;;;;;;;;;1020414;28;20036;-76
2023/12/21 02:07:55;;;;;;;4.53;3.80;;;;;;;;;;1025259;28;20059;-76
2023/12/21 02:08:26;;;;;;;6.53;5.57;;;;;;;;;;1026686;28;20029;-75
2023/12/21 02:08:57;;;;;;;6.22;4.13;;;;;;;;;;1025941;28;20026;-76
2023/12/21 02:09:28;;;;;;;4.07;2.88;;;;;;;;;;1022107;29;20535;-75
2023/12/21 02:09:58;;;;;;;3.45;3.15;;;;;;;;;;1021809;29;20117;-75
2023/12/21 02:10:29;;;;;;;4.78;4.38;;;;;;;;;;1020800;28;20027;-75
2023/12/21 02:11:00;;;;;;;1.65;1.60;;;;;;;;;;1023543;28;20101;-76
2023/12/21 02:11:30;;;;;;;5.50;3.45;;;;;;;;;;1025082;28;20053;-75
2023/12/21 02:12:01;;;;;;;6.38;3.88;;;;;;;;;;1021685;28;20016;-75
2023/12/21 02:12:31;;;;;;;5.43;4.65;;;;;;;;;;1023853;28;20057;-76
2023/12/21 02:13:02;;;;;;;7.55;3.72;;;;;;;;;;1023830;28;20033;-75
2023/12/21 02:13:32;;;;;;;12.73;4.53;;;;;;;;;;1025842;28;20122;-75
2023/12/21 02:14:04;;;;;;;9.73;5.78;;;;;;;;;;1024528;28;20062;-75
2023/12/21 02:14:35;;;;;;;12.98;4.30;;;;;;;;;;1023749;28;20117;-75
2023/12/21 02:15:06;;;;;;;6.00;5.35;;;;;;;;;;1023953;28;20399;-75
2023/12/21 02:15:37;;;;;;;19.48;7.53;;;;;;;;;;1025685;28;20031;-75
2023/12/21 02:16:21;;;;;;;10.23;5.53;;;;;;;;;;1025987;28;20026;-75
2023/12/21 02:16:56;;;;;;;6.97;5.38;;;;;;;;;;1021645;28;20031;-75
2023/12/21 02:17:27;;;;;;;6.05;5.45;;;;;;;;;;1022814;28;20094;-75
2023/12/21 02:17:59;;;;;;;10.70;6.03;;;;;;;;;;1019408;29;20017;-75
2023/12/21 02:18:30;;;;;;;15.20;9.20;;;;;;;;;;1021612;28;20060;-75
2023/12/21 02:19:01;;;;;;;4.32;3.80;;;;;;;;;;1022682;28;20418;-75
2023/12/21 02:19:32;;;;;;;15.13;7.53;;;;;;;;;;1021461;28;20046;-75
2023/12/21 02:20:03;;;;;;;9.90;5.10;;;;;;;;;;1021475;28;20062;-74
2023/12/21 02:20:33;;;;;;;6.63;4.88;;;;;;;;;;1021765;28;20102;-75
2023/12/21 02:21:04;;;;;;;10.00;5.97;;;;;;;;;;1024647;28;20022;-75
2023/12/21 02:21:35;;;;;;;18.35;6.68;;;;;;;;;;1021944;28;20030;-76
2023/12/21 02:22:06;;;;;;;5.10;4.70;;;;;;;;;;1022481;28;20061;-76
2023/12/21 02:22:39;;;;;;;13.90;6.28;;;;;;;;;;1023511;28;20073;-75
2023/12/21 02:23:10;;;;;;;6.55;4.88;;;;;;;;;;1021900;28;20030;-77
2023/12/21 02:23:42;;;;;;;16.15;7.07;;;;;;;;;;1020034;29;20697;-76
2023/12/21 02:24:16;;;;;;;4.55;3.80;;;;;;;;;;1015702;29;20040;-77
2023/12/21 02:24:47;;;;;;;7.82;4.38;;;;;;;;;;1018046;29;20024;-75
2023/12/21 02:25:17;;;;;;;7.90;5.70;;;;;;;;;;1021155;28;20819;-76
2023/12/21 02:25:48;;;;;;;8.23;5.78;;;;;;;;;;1024363;28;20030;-75
2023/12/21 02:26:18;;;;;;;10.15;5.80;;;;;;;;;;1026350;28;20034;-76
2023/12/21 02:26:52;;;;;;;16.83;4.65;;;;;;;;;;1023672;28;20033;-76
2023/12/21 02:27:25;;;;;;;10.82;5.18;;;;;;;;;;1026433;28;20032;-76
2023/12/21 02:27:56;;;;;;;7.80;6.97;;;;;;;;;;1021326;28;20027;-76
2023/12/21 02:28:26;;;;;;;7.13;6.53;;;;;;;;;;1024583;28;20019;-75
2023/12/21 02:28:56;;;;;;;11.85;9.18;;;;;;;;;;1023050;28;20031;-75
2023/12/21 02:29:27;;;;;;;5.30;4.88;;;;;;;;;;1024184;28;20026;-75
2023/12/21 02:29:57;;;;;;;13.43;5.30;;;;;;;;;;1022120;28;20034;-75
2023/12/21 02:30:28;;;;;;;5.43;3.60;;;;;;;;;;1026603;28;20023;-75
2023/12/21 02:30:59;;;;;;;9.40;5.70;;;;;;;;;;1023553;28;20039;-75
2023/12/21 02:31:29;;;;;;;10.13;5.70;;;;;;;;;;1025614;28;20026;-74
2023/12/21 02:32:00;;;;;;;13.50;6.97;;;;;;;;;;1020523;29;20411;-75
2023/12/21 02:32:30;;;;;;;9.57;6.32;;;;;;;;;;1019564;28;20031;-75
2023/12/21 02:33:03;;;;;;;13.43;5.75;;;;;;;;;;1025374;28;20395;-76
2023/12/21 02:33:34;;;;;;;21.63;9.35;;;;;;;;;;1024871;28;20082;-75
2023/12/21 02:34:06;;;;;;;22.17;10.05;;;;;;;;;;1023585;28;20031;-76
2023/12/21 02:34:36;;;;;;;10.65;8.38;;;;;;;;;;1028426;28;20040;-76
2023/12/21 02:35:07;;;;;;;6.95;5.63;;;;;;;;;;1027646;28;20033;-76
2023/12/21 02:35:37;;;;;;;17.73;7.60;;;;;;;;;;1026389;28;20149;-78
2023/12/21 02:36:08;;;;;;;17.33;7.47;;;;;;;;;;1026968;28;20111;-78
2023/12/21 02:36:38;;;;;;;8.18;4.22;;;;;;;;;;1029290;28;20037;-76
2023/12/21 02:37:09;;;;;;;6.43;4.57;;;;;;;;;;1022485;28;20521;-76
2023/12/21 02:37:39;;;;;;;13.50;5.50;;;;;;;;;;1023180;28;20019;-77
2023/12/21 02:38:10;;;;;;;9.82;5.38;;;;;;;;;;1022785;28;20023;-76
2023/12/21 02:38:43;;;;;;;17.73;11.43;;;;;;;;;;1019193;29;20030;-76
2023/12/21 02:39:14;;;;;;;10.10;6.18;;;;;;;;;;1017707;29;20269;-75
2023/12/21 02:39:44;;;;;;;8.80;5.38;;;;;;;;;;1021049;28;20034;-76
2023/12/21 02:40:15;;;;;;;19.60;7.35;;;;;;;;;;1024089;28;20091;-75
2023/12/21 02:40:45;;;;;;;6.57;5.88;;;;;;;;;;1026788;28;20032;-75
2023/12/21 02:41:19;;;;;;;11.45;4.93;;;;;;;;;;1022807;28;20070;-75
2023/12/21 02:41:51;;;;;;;11.60;7.70;;;;;;;;;;1025138;28;20153;-75
2023/12/21 02:42:22;;;;;;;5.75;5.10;;;;;;;;;;1023049;28;20083;-75
2023/12/21 02:42:52;;;;;;;8.23;5.15;;;;;;;;;;1023286;28;20101;-75
2023/12/21 02:43:23;;;;;;;17.77;9.65;;;;;;;;;;1025288;28;20030;-75
2023/12/21 02:43:53;;;;;;;5.38;4.43;;;;;;;;;;1019230;28;20018;-74
2023/12/21 02:44:24;;;;;;;10.90;5.13;;;;;;;;;;1020503;28;20420;-75
2023/12/21 02:44:54;;;;;;;31.88;10.25;;;;;;;;;;1020402;28;20051;-75
2023/12/21 02:45:25;;;;;;;15.32;8.10;;;;;;;;;;1019713;28;20580;-76
2023/12/21 02:45:55;;;;;;;8.05;6.72;;;;;;;;;;1021691;28;20099;-76
2023/12/21 02:46:26;;;;;;;6.00;4.25;;;;;;;;;;1024941;28;20061;-75
2023/12/21 02:46:58;;;;;;;23.80;8.10;;;;;;;;;;1022131;28;20030;-75
2023/12/21 02:47:28;;;;;;;14.48;7.07;;;;;;;;;;1023643;28;20027;-75
2023/12/21 02:47:59;;;;;;;8.23;4.70;;;;;;;;;;1025057;28;20584;-75
2023/12/21 02:48:30;;;;;;;12.48;9.32;;;;;;;;;;1025478;28;20039;-75
2023/12/21 02:49:01;;;;;;;5.13;4.68;;;;;;;;;;1021753;28;20074;-75
2023/12/21 02:49:31;;;;;;;9.68;7.75;;;;;;;;;;1022402;28;20045;-76
2023/12/21 02:50:02;;;;;;;7.30;5.53;;;;;;;;;;1021484;29;20031;-76
2023/12/21 02:50:32;;;;;;;17.20;11.75;;;;;;;;;;1016225;29;20038;-76
2023/12/21 02:51:03;;;;;;;16.80;7.60;;;;;;;;;;1019461;29;20031;-76
2023/12/21 02:51:33;;;;;;;4.25;3.72;;;;;;;;;;1018288;28;20027;-76
2023/12/21 02:52:04;;;;;;;20.00;5.60;;;;;;;;;;1020664;28;20506;-76
2023/12/21 02:52:35;;;;;;;29.52;14.18;;;;;;;;;;1022461;28;20257;-76
2023/12/21 02:53:05;;;;;;;16.17;7.80;;;;;;;;;;1018227;29;20035;-76
2023/12/21 02:53:36;;;;;;;10.00;6.28;;;;;;;;;;1020013;28;20396;-76
2023/12/21 02:54:07;;;;;;;8.35;5.25;;;;;;;;;;1018775;28;20042;-75
2023/12/21 02:54:37;;;;;;;4.55;3.63;;;;;;;;;;1020443;28;20031;-75
2023/12/21 02:55:08;;;;;;;7.13;5.47;;;;;;;;;;1023924;28;20030;-76
2023/12/21 02:55:38;;;;;;;7.85;6.28;;;;;;;;;;1026729;28;20135;-76
2023/12/21 02:56:09;;;;;;;12.55;6.65;;;;;;;;;;1021568;28;20037;-76
2023/12/21 02:56:41;;;;;;;17.95;7.43;;;;;;;;;;1023664;28;20030;-76
2023/12/21 02:57:11;;;;;;;9.25;8.35;;;;;;;;;;1024205;28;20025;-76
2023/12/21 02:57:42;;;;;;;8.98;4.57;;;;;;;;;;1022907;28;20688;-75
2023/12/21 02:58:13;;;;;;;11.05;6.22;;;;;;;;;;1021912;28;20039;-76
2023/12/21 02:58:43;;;;;;;25.40;6.97;;;;;;;;;;1023003;28;20034;-76
2023/12/21 02:59:14;;;;;;;14.05;5.95;;;;;;;;;;1020133;28;20046;-76
2023/12/21 02:59:45;;;;;;;16.40;5.50;;;;;;;;;;1020072;28;20027;-75
2023/12/21 03:00:16;;;;;;;5.70;4.88;;;;;;;;;;1019319;28;20395;-75
2023/12/21 03:00:47;;;;;;;17.60;8.55;;;;;;;;;;1021341;28;20034;-76
2023/12/21 03:01:18;;;;;;;22.55;8.93;;;;;;;;;;1023327;28;20549;-75
2023/12/21 03:01:49;;;;;;;20.88;13.73;;;;;;;;;;1024460;28;20141;-75
2023/12/21 03:02:20;;;;;;;9.45;7.47;;;;;;;;;;1020879;28;20035;-75
2023/12/21 03:02:52;;;;;;;16.00;5.88;;;;;;;;;;1019153;28;20703;-75
2023/12/21 03:03:22;;;;;;;11.63;5.97;;;;;;;;;;1017977;29;20516;-75